createdAt,value
2023-09-28T00:01:42.406Z,96420.69
2023-09-28T00:04:09.335Z,96425.44
2023-09-28T00:06:37.190Z,96426.06
2023-09-28T00:09:04.902Z,96428.63
2023-09-28T00:11:33.998Z,96426.53
2023-09-28T00:14:00.860Z,96431.94
2023-09-28T00:16:28.986Z,96421.59
2023-09-28T00:18:56.828Z,96426.03
2023-09-28T00:21:24.763Z,96432.22
2023-09-28T00:23:51.685Z,96435.25
2023-09-28T00:26:20.605Z,96426.66
2023-09-28T00:28:51.600Z,96433.81
2023-09-28T00:31:20.515Z,96435.53
2023-09-28T00:33:48.582Z,96433.94
2023-09-28T00:36:16.556Z,96433.94
2023-09-28T00:38:44.703Z,96435.84
2023-09-28T00:41:11.555Z,96436.66
2023-09-28T00:43:39.359Z,96434.25
2023-09-28T00:46:07.618Z,96426.78
2023-09-28T00:48:46.905Z,96431.69
2023-09-28T00:51:13.730Z,96426.59
2023-09-28T00:53:41.498Z,96426.25
2023-09-28T00:56:09.018Z,96436.81
2023-09-28T00:58:39.263Z,96420.56
2023-09-28T01:01:11.382Z,96415.44
2023-09-28T01:03:40.870Z,96423.56
2023-09-28T01:06:09.273Z,96421.66
2023-09-28T01:08:37.075Z,96417.69
2023-09-28T01:11:08.589Z,96424.69
2023-09-28T01:13:35.405Z,96431.03
2023-09-28T01:16:03.326Z,96427.53
2023-09-28T01:18:31.473Z,96433.75
2023-09-28T01:20:59.784Z,96429.44
2023-09-28T01:23:28.058Z,96433.75
2023-09-28T01:25:56.046Z,96438.34
2023-09-28T01:28:22.854Z,96448.53
2023-09-28T01:30:51.264Z,96438.81
2023-09-28T01:33:19.020Z,96442.75
2023-09-28T01:35:48.037Z,96437.00
2023-09-28T01:38:20.107Z,96433.50
2023-09-28T01:40:51.253Z,96440.69
2023-09-28T01:43:18.271Z,96438.78
2023-09-28T01:45:46.264Z,96435.13
2023-09-28T01:48:13.180Z,96434.19
2023-09-28T01:50:40.887Z,96429.25
2023-09-28T01:53:08.059Z,96432.09
2023-09-28T01:55:35.903Z,96429.38
2023-09-28T01:58:08.584Z,96425.97
2023-09-28T02:00:36.584Z,96440.88
2023-09-28T02:03:06.018Z,96438.91
2023-09-28T02:05:34.526Z,96442.84
2023-09-28T02:08:03.342Z,96440.75
2023-09-28T02:10:31.261Z,96440.56
2023-09-28T02:12:58.728Z,96441.69
2023-09-28T02:15:28.195Z,96446.28
2023-09-28T02:17:54.988Z,96446.59
2023-09-28T02:20:23.667Z,96450.09
2023-09-28T02:22:53.798Z,96448.47
2023-09-28T02:25:23.496Z,96450.34
2023-09-28T02:27:51.611Z,96447.28
2023-09-28T02:30:23.222Z,96452.78
2023-09-28T02:32:53.987Z,96457.19
2023-09-28T02:35:22.557Z,96451.47
2023-09-28T02:37:52.060Z,96457.00
2023-09-28T02:40:21.258Z,96459.81
2023-09-28T02:42:49.494Z,96462.53
2023-09-28T02:45:17.457Z,96455.84
2023-09-28T02:47:45.562Z,96447.41
2023-09-28T02:50:16.327Z,96457.72
2023-09-28T02:52:44.896Z,96451.03
2023-09-28T02:55:14.191Z,96448.13
2023-09-28T02:57:42.506Z,96458.28
2023-09-28T03:00:19.324Z,96460.16
2023-09-28T03:02:46.247Z,96460.28
2023-09-28T03:05:17.385Z,96459.28
2023-09-28T03:07:44.268Z,96464.81
2023-09-28T03:10:14.287Z,96465.91
2023-09-28T03:12:41.386Z,96474.81
2023-09-28T03:15:11.963Z,96470.69
2023-09-28T03:17:39.945Z,96475.50
2023-09-28T03:20:11.482Z,96471.22
2023-09-28T03:22:39.634Z,96473.59
2023-09-28T03:25:12.226Z,96470.91
2023-09-28T03:27:41.216Z,96464.69
2023-09-28T03:30:11.299Z,96474.19
2023-09-28T03:32:38.936Z,96473.72
2023-09-28T03:35:09.196Z,96475.63
2023-09-28T03:37:36.974Z,96474.94
2023-09-28T03:40:11.642Z,96485.22
2023-09-28T03:42:40.749Z,96490.63
2023-09-28T03:45:10.651Z,96483.13
2023-09-28T03:47:38.457Z,96479.13
2023-09-28T03:50:08.233Z,96484.03
2023-09-28T03:52:36.214Z,96486.22
2023-09-28T03:55:04.656Z,96484.94
2023-09-28T03:57:33.730Z,96481.44
2023-09-28T04:00:01.721Z,96483.66
2023-09-28T04:02:39.354Z,96477.94
2023-09-28T04:05:08.132Z,96481.94
2023-09-28T04:07:36.292Z,96486.22
2023-09-28T04:10:04.734Z,96485.13
2023-09-28T04:12:34.714Z,96492.63
2023-09-28T04:15:02.608Z,96489.13
2023-09-28T04:17:30.530Z,96487.53
2023-09-28T04:19:58.324Z,96485.03
2023-09-28T04:22:26.045Z,96478.53
2023-09-28T04:24:53.811Z,96477.22
2023-09-28T04:27:21.534Z,96476.44
2023-09-28T04:29:50.577Z,96473.72
2023-09-28T04:32:18.372Z,96478.81
2023-09-28T04:34:46.385Z,96477.72
2023-09-28T04:37:14.276Z,96482.03
2023-09-28T04:39:41.970Z,96480.94
2023-09-28T04:42:09.723Z,96484.63
2023-09-28T04:44:37.590Z,96481.28
2023-09-28T04:47:07.288Z,96483.41
2023-09-28T04:49:35.391Z,96485.31
2023-09-28T04:52:03.090Z,96482.59
2023-09-28T04:54:30.798Z,96487.22
2023-09-28T04:56:59.143Z,96492.31
2023-09-28T04:59:28.623Z,96486.91
2023-09-28T05:01:58.277Z,96492.50
2023-09-28T05:04:27.421Z,96489.69
2023-09-28T05:06:55.268Z,96492.28
2023-09-28T05:09:23.024Z,96499.16
2023-09-28T05:11:51.145Z,96497.44
2023-09-28T05:14:21.122Z,96491.94
2023-09-28T05:16:49.041Z,96491.94
2023-09-28T05:19:16.836Z,96487.63
2023-09-28T05:21:46.215Z,96494.16
2023-09-28T05:24:14.198Z,96498.75
2023-09-28T05:26:42.122Z,96488.75
2023-09-28T05:29:09.987Z,96498.44
2023-09-28T05:31:37.856Z,96491.94
2023-09-28T05:34:06.353Z,96494.03
2023-09-28T05:36:34.171Z,96499.31
2023-09-28T05:39:04.227Z,96501.31
2023-09-28T05:41:32.381Z,96490.09
2023-09-28T05:44:00.899Z,96510.19
2023-09-28T05:46:28.861Z,96507.03
2023-09-28T05:48:56.650Z,96515.53
2023-09-28T05:51:24.450Z,96519.22
2023-09-28T05:53:54.357Z,96518.44
2023-09-28T05:56:23.878Z,96521.00
2023-09-28T05:58:51.791Z,96518.66
2023-09-28T06:01:22.358Z,96529.75
2023-09-28T06:03:50.261Z,96522.47
2023-09-28T06:06:19.218Z,96531.91
2023-09-28T06:08:48.571Z,96531.34
2023-09-28T06:11:18.171Z,96534.44
2023-09-28T06:16:18.993Z,96530.41
2023-09-28T06:18:47.276Z,96544.97
2023-09-28T06:21:15.081Z,96540.41
2023-09-28T06:23:47.177Z,96549.38
2023-09-28T06:26:26.005Z,96549.56
2023-09-28T06:29:04.549Z,96561.22
2023-09-28T06:31:32.435Z,96565.06
2023-09-28T06:34:00.353Z,96563.34
2023-09-28T06:36:41.297Z,96565.41
2023-09-28T06:39:10.541Z,96557.44
2023-09-28T06:41:39.835Z,96571.63
2023-09-28T06:44:10.738Z,96560.09
2023-09-28T06:46:38.625Z,96563.94
2023-09-28T06:49:09.307Z,96578.47
2023-09-28T06:51:38.287Z,96572.88
2023-09-28T06:54:07.699Z,96582.47
2023-09-28T06:56:37.529Z,96582.28
2023-09-28T06:59:05.652Z,96585.78
2023-09-28T07:01:36.440Z,96590.72
2023-09-28T07:04:04.411Z,96583.03
2023-09-28T07:06:32.293Z,96590.69
2023-09-28T07:09:00.071Z,96587.00
2023-09-28T07:11:28.251Z,96592.56
2023-09-28T07:13:56.110Z,96596.22
2023-09-28T07:16:24.357Z,96590.78
2023-09-28T07:18:53.764Z,96597.16
2023-09-28T07:21:21.687Z,96606.28
2023-09-28T07:23:49.541Z,96595.22
2023-09-28T07:26:18.440Z,96587.38
2023-09-28T07:28:46.492Z,96595.53
2023-09-28T07:31:14.632Z,96579.69
2023-09-28T07:33:43.421Z,96579.03
2023-09-28T07:36:12.805Z,96578.22
2023-09-28T07:38:40.647Z,96577.84
2023-09-28T07:41:08.672Z,96583.22
2023-09-28T07:43:37.482Z,96579.63
2023-09-28T07:46:05.473Z,96594.47
2023-09-28T07:48:33.339Z,96587.19
2023-09-28T07:51:01.108Z,96582.63
2023-09-28T07:53:34.237Z,96585.88
2023-09-28T07:56:02.360Z,96590.84
2023-09-28T07:58:31.743Z,96588.75
2023-09-28T08:01:02.791Z,96591.13
2023-09-28T08:03:38.237Z,96593.31
2023-09-28T08:06:06.222Z,96592.47
2023-09-28T08:08:35.419Z,96595.47
2023-09-28T08:11:04.036Z,96609.44
2023-09-28T08:13:31.880Z,96610.47
2023-09-28T08:15:59.716Z,96616.56
2023-09-28T08:18:27.654Z,96629.31
2023-09-28T08:21:09.586Z,96632.47
2023-09-28T08:23:41.985Z,96638.25
2023-09-28T08:26:10.471Z,96646.44
2023-09-28T08:28:39.209Z,96644.25
2023-09-28T08:31:07.512Z,96646.84
2023-09-28T08:33:35.420Z,96652.59
2023-09-28T08:36:03.295Z,96654.03
2023-09-28T08:38:31.312Z,96651.81
2023-09-28T08:41:02.064Z,96646.72
2023-09-28T08:43:35.001Z,96657.63
2023-09-28T08:46:04.109Z,96658.38
2023-09-28T08:48:32.687Z,96665.34
2023-09-28T08:51:08.613Z,96659.50
2023-09-28T08:53:39.162Z,96661.09
2023-09-28T08:56:09.272Z,96659.38
2023-09-28T08:58:38.298Z,96655.53
2023-09-28T09:04:00.867Z,96660.38
2023-09-28T09:06:31.026Z,96663.16
2023-09-28T09:09:02.753Z,96650.47
2023-09-28T09:11:32.615Z,96652.63
2023-09-28T09:14:01.036Z,96651.41
2023-09-28T09:16:30.430Z,96652.50
2023-09-28T09:19:00.050Z,96656.44
2023-09-28T09:21:28.721Z,96652.41
2023-09-28T09:24:04.624Z,96650.75
2023-09-28T09:26:42.425Z,96637.22
2023-09-28T09:29:10.736Z,96640.56
2023-09-28T09:31:40.893Z,96638.34
2023-09-28T09:34:13.405Z,96637.03
2023-09-28T09:36:42.396Z,96639.25
2023-09-28T09:39:22.844Z,96638.25
2023-09-28T09:41:52.981Z,96634.91
2023-09-28T09:44:21.701Z,96634.56
2023-09-28T09:46:50.654Z,96642.19
2023-09-28T09:49:19.835Z,96634.84
2023-09-28T09:51:49.300Z,96640.84
2023-09-28T09:54:17.948Z,96633.06
2023-09-28T09:56:47.468Z,96638.31
2023-09-28T09:59:18.078Z,96630.19
2023-09-28T10:01:49.628Z,96632.59
2023-09-28T10:04:18.718Z,96631.19
2023-09-28T10:06:48.441Z,96629.69
2023-09-28T10:09:18.276Z,96618.41
2023-09-28T10:11:48.677Z,96612.91
2023-09-28T10:14:20.640Z,96622.06
2023-09-28T10:16:51.789Z,96620.56
2023-09-28T10:19:22.858Z,96617.91
2023-09-28T10:21:52.624Z,96618.81
2023-09-28T10:24:26.599Z,96611.44
2023-09-28T10:26:56.044Z,96609.03
2023-09-28T10:29:30.347Z,96605.56
2023-09-28T10:31:59.858Z,96604.03
2023-09-28T10:34:28.946Z,96607.63
2023-09-28T10:37:20.473Z,96603.69
2023-09-28T10:39:53.608Z,96603.75
2023-09-28T10:42:23.056Z,96605.34
2023-09-28T10:44:54.861Z,96603.41
2023-09-28T10:47:23.363Z,96608.53
2023-09-28T10:50:00.407Z,96606.97
2023-09-28T10:52:28.644Z,96605.78
2023-09-28T10:54:56.623Z,96610.09
2023-09-28T10:57:30.829Z,96605.41
2023-09-28T11:00:02.169Z,96614.88
2023-09-28T11:02:32.928Z,96609.34
2023-09-28T11:05:01.561Z,96618.84
2023-09-28T11:07:29.965Z,96614.88
2023-09-28T11:09:59.531Z,96617.63
2023-09-28T11:12:29.909Z,96618.41
2023-09-28T11:14:59.519Z,96615.63
2023-09-28T11:17:29.076Z,96612.44
2023-09-28T11:19:57.812Z,96616.00
2023-09-28T11:22:25.667Z,96616.78
2023-09-28T11:24:53.535Z,96613.22
2023-09-28T11:27:21.702Z,96608.81
2023-09-28T11:29:56.209Z,96610.34
2023-09-28T11:32:24.512Z,96599.25
2023-09-28T11:34:54.790Z,96589.00
2023-09-28T11:37:24.654Z,96595.34
2023-09-28T11:39:53.065Z,96596.41
2023-09-28T11:42:22.112Z,96583.69
2023-09-28T11:44:49.970Z,96589.66
2023-09-28T11:47:21.791Z,96586.44
2023-09-28T11:49:50.069Z,96576.91
2023-09-28T11:52:20.060Z,96571.72
2023-09-28T11:54:48.056Z,96575.19
2023-09-28T11:57:17.790Z,96569.63
2023-09-28T11:59:46.187Z,96569.97
2023-09-28T12:02:14.279Z,96564.78
2023-09-28T12:04:42.256Z,96561.22
2023-09-28T12:07:10.933Z,96563.09
2023-09-28T12:10:04.360Z,96557.09
2023-09-28T12:12:33.036Z,96557.16
2023-09-28T12:15:00.842Z,96546.84
2023-09-28T12:17:29.460Z,96543.00
2023-09-28T12:19:57.699Z,96546.59
2023-09-28T12:22:25.922Z,96546.38
2023-09-28T12:24:57.013Z,96551.50
2023-09-28T12:27:25.557Z,96545.06
2023-09-28T12:29:53.395Z,96553.22
2023-09-28T12:32:21.356Z,96545.53
2023-09-28T12:34:49.498Z,96552.00
2023-09-28T12:37:17.329Z,96545.13
2023-09-28T12:39:45.163Z,96544.28
2023-09-28T12:42:16.403Z,96549.38
2023-09-28T12:44:44.890Z,96542.53
2023-09-28T12:47:14.365Z,96545.63
2023-09-28T12:49:42.310Z,96537.22
2023-09-28T12:52:10.209Z,96539.63
2023-09-28T12:54:38.010Z,96541.66
2023-09-28T12:57:05.950Z,96533.47
2023-09-28T12:59:35.655Z,96535.84
2023-09-28T13:02:06.750Z,96537.31
2023-09-28T13:04:35.321Z,96543.97
2023-09-28T13:07:04.693Z,96544.34
2023-09-28T13:09:33.733Z,96548.59
2023-09-28T13:12:01.909Z,96544.13
2023-09-28T13:14:29.803Z,96548.84
2023-09-28T13:17:00.960Z,96545.66
2023-09-28T13:19:30.039Z,96541.28
2023-09-28T13:21:59.141Z,96542.53
2023-09-28T13:24:28.348Z,96545.78
2023-09-28T13:27:01.661Z,96548.91
2023-09-28T13:29:30.749Z,96541.00
2023-09-28T13:32:00.577Z,96546.94
2023-09-28T13:34:28.720Z,96534.38
2023-09-28T13:36:56.876Z,96526.38
2023-09-28T13:39:31.468Z,96525.75
2023-09-28T13:42:04.328Z,96529.66
2023-09-28T13:44:34.183Z,96526.13
2023-09-28T13:47:04.472Z,96519.75
2023-09-28T13:49:32.968Z,96522.13
2023-09-28T13:52:01.054Z,96516.13
2023-09-28T13:54:30.891Z,96509.41
2023-09-28T13:57:00.482Z,96501.19
2023-09-28T13:59:28.736Z,96493.34
2023-09-28T14:01:56.840Z,96489.78
2023-09-28T14:04:26.284Z,96493.41
2023-09-28T14:06:56.112Z,96491.81
2023-09-28T14:09:28.709Z,96483.53
2023-09-28T14:11:57.478Z,96472.47
2023-09-28T14:14:25.676Z,96477.38
2023-09-28T14:16:58.216Z,96483.75
2023-09-28T14:19:32.333Z,96473.13
2023-09-28T14:22:00.162Z,96482.75
2023-09-28T14:24:30.143Z,96482.78
2023-09-28T14:26:58.742Z,96480.03
2023-09-28T14:29:26.884Z,96479.69
2023-09-28T14:31:55.338Z,96485.28
2023-09-28T14:34:23.181Z,96482.63
2023-09-28T14:36:52.737Z,96479.13
2023-09-28T14:39:21.408Z,96471.31
2023-09-28T14:41:49.268Z,96470.63
2023-09-28T14:44:17.184Z,96466.41
2023-09-28T14:46:45.022Z,96462.53
2023-09-28T14:49:12.857Z,96458.25
2023-09-28T14:51:40.697Z,96452.03
2023-09-28T14:54:11.461Z,96450.09
2023-09-28T14:56:39.351Z,96449.31
2023-09-28T14:59:07.256Z,96449.78
2023-09-28T15:01:35.220Z,96451.78
2023-09-28T15:04:04.172Z,96451.81
2023-09-28T15:06:34.104Z,96451.44
2023-09-28T15:09:01.986Z,96451.84
2023-09-28T15:11:32.174Z,96445.09
2023-09-28T15:13:59.998Z,96446.69
2023-09-28T15:16:27.881Z,96447.41
2023-09-28T15:18:55.773Z,96443.84
2023-09-28T15:21:24.165Z,96433.19
2023-09-28T15:23:51.999Z,96435.50
2023-09-28T15:26:19.968Z,96439.03
2023-09-28T15:28:49.650Z,96430.75
2023-09-28T15:31:20.442Z,96429.13
2023-09-28T15:33:48.588Z,96431.81
2023-09-28T15:36:17.267Z,96432.91
2023-09-28T15:38:45.664Z,96425.78
2023-09-28T15:41:36.250Z,96430.78
2023-09-28T15:44:06.939Z,96428.75
2023-09-28T15:46:36.060Z,96431.41
2023-09-28T15:49:06.338Z,96442.00
2023-09-28T15:51:35.016Z,96434.06
2023-09-28T15:54:04.290Z,96429.28
2023-09-28T15:56:32.618Z,96437.84
2023-09-28T15:59:00.795Z,96427.16
2023-09-28T16:01:30.125Z,96429.00
2023-09-28T16:03:58.207Z,96427.00
2023-09-28T16:06:26.408Z,96432.75
2023-09-28T16:08:54.540Z,96433.81
2023-09-28T16:11:23.298Z,96430.91
2023-09-28T16:13:51.378Z,96430.41
2023-09-28T16:16:19.301Z,96438.88
2023-09-28T16:18:48.634Z,96438.31
2023-09-28T16:21:16.486Z,96433.47
2023-09-28T16:23:44.810Z,96440.41
2023-09-28T16:26:14.039Z,96436.69
2023-09-28T16:28:43.399Z,96433.81
2023-09-28T16:31:11.505Z,96436.75
2023-09-28T16:33:39.450Z,96430.72
2023-09-28T16:36:08.946Z,96438.81
2023-09-28T16:38:37.066Z,96446.47
2023-09-28T16:41:05.004Z,96441.63
2023-09-28T16:43:33.024Z,96438.19
2023-09-28T16:46:00.936Z,96452.03
2023-09-28T16:48:28.901Z,96461.16
2023-09-28T16:50:56.926Z,96451.94
2023-09-28T16:53:26.534Z,96451.97
2023-09-28T16:55:55.031Z,96452.06
2023-09-28T16:58:24.451Z,96458.50
2023-09-28T17:00:52.685Z,96454.66
2023-09-28T17:03:20.638Z,96449.69
2023-09-28T17:05:48.592Z,96451.31
2023-09-28T17:08:16.483Z,96454.97
2023-09-28T17:10:45.771Z,96458.19
2023-09-28T17:13:13.607Z,96457.53
2023-09-28T17:15:44.580Z,96461.25
2023-09-28T17:18:20.741Z,96472.63
2023-09-28T17:20:49.683Z,96471.13
2023-09-28T17:23:19.757Z,96467.44
2023-09-28T17:25:51.209Z,96474.66
2023-09-28T17:28:19.172Z,96473.59
2023-09-28T17:30:47.682Z,96472.06
2023-09-28T17:33:15.789Z,96478.13
2023-09-28T17:35:44.171Z,96475.47
2023-09-28T17:38:12.238Z,96474.31
2023-09-28T17:40:41.189Z,96476.50
2023-09-28T17:43:11.076Z,96482.81
2023-09-28T17:45:39.562Z,96492.63
2023-09-28T17:48:08.087Z,96479.09
2023-09-28T17:50:36.050Z,96486.97
2023-09-28T17:53:04.868Z,96493.03
2023-09-28T17:55:33.164Z,96488.06
2023-09-28T17:58:01.249Z,96487.81
2023-09-28T18:00:30.550Z,96486.78
2023-09-28T18:02:58.969Z,96488.75
2023-09-28T18:05:26.907Z,96488.50
2023-09-28T18:07:54.753Z,96489.84
2023-09-28T18:10:22.849Z,96488.16
2023-09-28T18:12:50.742Z,96489.97
2023-09-28T18:15:20.733Z,96493.56
2023-09-28T18:17:51.799Z,96502.66
2023-09-28T18:20:19.967Z,96505.16
2023-09-28T18:22:48.155Z,96513.41
2023-09-28T18:25:16.484Z,96509.31
2023-09-28T18:27:44.539Z,96504.97
2023-09-28T18:30:13.799Z,96508.13
2023-09-28T18:32:42.089Z,96509.13
2023-09-28T18:35:12.693Z,96513.88
2023-09-28T18:37:40.711Z,96518.16
2023-09-28T18:40:10.969Z,96510.53
2023-09-28T18:42:40.277Z,96514.72
2023-09-28T18:45:09.173Z,96517.97
2023-09-28T18:47:37.255Z,96524.44
2023-09-28T18:50:05.904Z,96528.47
2023-09-28T18:52:35.919Z,96524.47
2023-09-28T18:55:04.292Z,96523.97
2023-09-28T18:57:32.286Z,96533.63
2023-09-28T19:00:01.227Z,96526.56
2023-09-28T19:02:29.597Z,96529.28
2023-09-28T19:04:57.885Z,96528.03
2023-09-28T19:07:27.285Z,96531.31
2023-09-28T19:09:56.931Z,96531.66
2023-09-28T19:12:24.750Z,96533.78
2023-09-28T19:14:52.601Z,96533.19
2023-09-28T19:17:20.508Z,96531.78
2023-09-28T19:19:48.510Z,96535.81
2023-09-28T19:22:18.723Z,96534.88
2023-09-28T19:24:46.984Z,96539.41
2023-09-28T19:27:27.781Z,96538.91
2023-09-28T19:30:04.513Z,96543.41
2023-09-28T19:32:32.557Z,96541.38
2023-09-28T19:35:00.453Z,96547.91
2023-09-28T19:37:28.430Z,96543.00
2023-09-28T19:39:56.512Z,96556.44
2023-09-28T19:42:25.718Z,96555.81
2023-09-28T19:44:53.622Z,96556.59
2023-09-28T19:47:21.459Z,96552.75
2023-09-28T19:49:49.290Z,96546.53
2023-09-28T19:52:17.170Z,96552.75
2023-09-28T19:54:45.011Z,96550.56
2023-09-28T19:57:12.878Z,96551.06
2023-09-28T19:59:42.376Z,96556.03
2023-09-28T20:02:10.282Z,96555.06
2023-09-28T20:04:38.171Z,96554.63
2023-09-28T20:07:06.092Z,96554.13
2023-09-28T20:09:33.918Z,96551.75
2023-09-28T20:12:02.043Z,96549.38
2023-09-28T20:14:30.019Z,96545.03
2023-09-28T20:16:59.218Z,96545.38
2023-09-28T20:19:27.283Z,96553.84
2023-09-28T20:21:55.121Z,96553.84
2023-09-28T20:24:22.948Z,96548.09
2023-09-28T20:26:50.797Z,96546.81
2023-09-28T20:29:18.668Z,96550.97
2023-09-28T20:31:46.937Z,96550.34
2023-09-28T20:34:16.216Z,96548.59
2023-09-28T20:36:44.100Z,96552.25
2023-09-28T20:39:11.937Z,96548.44
2023-09-28T20:41:39.820Z,96556.75
2023-09-28T20:44:07.695Z,96556.91
2023-09-28T20:46:36.413Z,96555.16
2023-09-28T20:49:05.698Z,96559.00
2023-09-28T20:51:35.109Z,96553.91
2023-09-28T20:54:02.971Z,96565.91
2023-09-28T20:56:31.093Z,96555.84
2023-09-28T20:58:58.951Z,96558.72
2023-09-28T21:01:26.927Z,96552.63
2023-09-28T21:03:56.983Z,96550.88
2023-09-28T21:06:25.114Z,96554.41
2023-09-28T21:08:54.732Z,96552.00
2023-09-28T21:11:22.885Z,96552.63
2023-09-28T21:13:50.792Z,96553.59
2023-09-28T21:16:18.726Z,96552.94
2023-09-28T21:18:47.098Z,96552.47
2023-09-28T21:21:15.104Z,96553.09
2023-09-28T21:23:42.993Z,96552.63
2023-09-28T21:26:13.246Z,96559.81
2023-09-28T21:28:41.481Z,96554.72
2023-09-28T21:31:09.470Z,96559.97
2023-09-28T21:33:37.389Z,96555.78
2023-09-28T21:36:06.655Z,96564.25
2023-09-28T21:38:34.615Z,96568.88
2023-09-28T21:41:10.157Z,96569.34
2023-09-28T21:43:41.171Z,96565.19
2023-09-28T21:46:09.728Z,96566.13
2023-09-28T21:48:37.812Z,96572.66
2023-09-28T21:51:05.729Z,96564.22
2023-09-28T21:53:33.649Z,96560.09
2023-09-28T21:56:01.565Z,96556.25
2023-09-28T21:58:29.643Z,96554.34
2023-09-28T22:00:59.000Z,96556.91
2023-09-28T22:03:27.015Z,96555.13
2023-09-28T22:05:55.355Z,96556.06
2023-09-28T22:08:24.541Z,96555.09
2023-09-28T22:10:52.929Z,96554.13
2023-09-28T22:13:21.967Z,96552.84
2023-09-28T22:15:49.995Z,96555.34
2023-09-28T22:18:19.288Z,96547.34
2023-09-28T22:20:47.473Z,96548.31
2023-09-28T22:23:15.400Z,96551.47
2023-09-28T22:25:43.998Z,96558.00
2023-09-28T22:28:11.907Z,96561.34
2023-09-28T22:30:39.827Z,96556.06
2023-09-28T22:33:07.713Z,96558.41
2023-09-28T22:35:37.283Z,96561.25
2023-09-28T22:38:05.478Z,96567.91
2023-09-28T22:40:33.486Z,96569.34
2023-09-28T22:43:01.312Z,96565.34
2023-09-28T22:45:29.989Z,96574.78
2023-09-28T22:47:57.913Z,96561.84
2023-09-28T22:50:25.878Z,96562.16
2023-09-28T22:52:55.277Z,96558.03
2023-09-28T22:55:23.615Z,96560.91
2023-09-28T22:57:51.838Z,96560.91
2023-09-28T23:00:19.976Z,96556.28
2023-09-28T23:02:47.933Z,96564.09
2023-09-28T23:05:15.849Z,96570.31
2023-09-28T23:07:43.654Z,96565.53
2023-09-28T23:10:13.724Z,96565.22
2023-09-28T23:12:42.416Z,96567.59
2023-09-28T23:15:13.916Z,96559.97
2023-09-28T23:17:42.601Z,96574.94
2023-09-28T23:20:12.207Z,96571.56
2023-09-28T23:22:42.713Z,96574.22
2023-09-28T23:25:14.494Z,96572.56
2023-09-28T23:27:46.737Z,96572.22
2023-09-28T23:30:19.760Z,96575.22
2023-09-28T23:32:49.937Z,96566.13
2023-09-28T23:35:20.335Z,96574.22
2023-09-28T23:37:49.615Z,96569.66
2023-09-28T23:40:22.494Z,96573.16
2023-09-28T23:42:50.778Z,96569.94
2023-09-28T23:45:20.307Z,96572.97
2023-09-28T23:47:49.265Z,96580.75
2023-09-28T23:50:18.476Z,96576.66
2023-09-28T23:52:46.883Z,96578.69
2023-09-28T23:55:16.515Z,96580.56
2023-09-28T23:57:46.613Z,96589.13
